Elizabethtown, Pennsylvania
Current Conditions -  °F | °C
As of 12:05 PM on Wednesday 26 Nov 2014 (Local Time) from KMDT Reporting Station
Moderate Snow Moderate Snow  
Wind Chill: 27°   Ceiling: 400
Heat Index: 32°   Visibility: 0.5mi
Dew Point: 32°   Wind: 5mph
Humidity: 100%   Direction: 330°NNW
Pressure: 30.02"   Gusts: NA
Location:  40.15°N, 76.61°W
Report Text: KMDT 261705Z 33004KT 1/2SM R13/3500V4500FT SN FG OVC004 00/00 A3002 RMK AO2 PRESFR P0002 T00000000
Loading
Personal Weather Stations






























Interactive Weather Map New forecast layout! Learn more

10-Day Weather Forecast

Advertisements
Track Severe Weather on mobile